createdAt,value
2018-03-16T00:00:48.279Z,98480.35
2018-03-16T00:03:15.705Z,98482.16
2018-03-16T00:05:48.483Z,98487.40
2018-03-16T00:08:15.929Z,98482.13
2018-03-16T00:10:44.075Z,98481.59
2018-03-16T00:13:11.548Z,98490.14
2018-03-16T00:15:40.333Z,98493.61
2018-03-16T00:18:08.303Z,98498.27
2018-03-16T00:20:36.053Z,98496.45
2018-03-16T00:23:03.744Z,98497.80
2018-03-16T00:25:31.554Z,98517.92
2018-03-16T00:27:59.176Z,98503.49
2018-03-16T00:30:26.613Z,98511.86
2018-03-16T00:32:55.053Z,98513.64
2018-03-16T00:35:22.459Z,98513.96
2018-03-16T00:37:49.899Z,98518.77
2018-03-16T00:40:17.296Z,98513.74
2018-03-16T00:42:44.992Z,98513.80
2018-03-16T00:45:13.695Z,98512.02
2018-03-16T00:47:41.433Z,98511.77
2018-03-16T00:50:08.997Z,98513.17
2018-03-16T00:52:36.526Z,98521.24
2018-03-16T00:55:04.157Z,98522.88
2018-03-16T00:57:31.568Z,98526.74
2018-03-16T00:59:59.025Z,98527.39
2018-03-16T01:02:26.369Z,98523.36
2018-03-16T01:04:53.748Z,98525.16
2018-03-16T01:07:21.166Z,98526.66
2018-03-16T01:09:48.571Z,98522.69
2018-03-16T01:12:16.022Z,98526.23
2018-03-16T01:14:43.417Z,98529.17
2018-03-16T01:17:10.844Z,98533.22
2018-03-16T01:19:38.932Z,98527.53
2018-03-16T01:22:06.312Z,98528.66
2018-03-16T01:24:33.753Z,98531.59
2018-03-16T01:27:02.116Z,98524.60
2018-03-16T01:29:29.517Z,98529.31
2018-03-16T01:31:56.929Z,98523.58
2018-03-16T01:34:24.425Z,98520.00
2018-03-16T01:36:51.842Z,98520.73
2018-03-16T01:39:19.315Z,98518.94
2018-03-16T01:41:47.477Z,98523.89
2018-03-16T01:44:14.867Z,98524.04
2018-03-16T01:46:42.318Z,98516.61
2018-03-16T01:49:09.728Z,98520.95
2018-03-16T01:51:37.116Z,98517.88
2018-03-16T01:54:04.582Z,98516.03
2018-03-16T01:56:31.968Z,98521.61
2018-03-16T01:58:59.368Z,98518.41
2018-03-16T02:01:26.749Z,98521.13
2018-03-16T02:03:54.184Z,98522.97
2018-03-16T02:06:21.571Z,98523.05
2018-03-16T02:08:49.041Z,98525.51
2018-03-16T02:11:16.433Z,98536.75
2018-03-16T02:13:44.283Z,98535.95
2018-03-16T02:16:11.660Z,98531.56
2018-03-16T02:18:41.131Z,98522.42
2018-03-16T02:21:08.548Z,98536.34
2018-03-16T02:23:35.956Z,98538.69
2018-03-16T02:26:04.386Z,98541.92
2018-03-16T02:28:31.923Z,98536.60
2018-03-16T02:30:59.327Z,98535.53
2018-03-16T02:33:26.732Z,98542.81
2018-03-16T02:35:54.300Z,98542.27
2018-03-16T02:38:21.854Z,98539.23
2018-03-16T02:40:49.402Z,98540.77
2018-03-16T02:43:16.913Z,98539.38
2018-03-16T02:45:44.498Z,98533.32
2018-03-16T02:48:11.988Z,98539.23
2018-03-16T02:50:39.440Z,98532.71
2018-03-16T02:53:07.642Z,98541.11
2018-03-16T02:55:36.051Z,98535.72
2018-03-16T02:58:03.505Z,98539.58
2018-03-16T03:00:31.349Z,98539.42
2018-03-16T03:02:58.763Z,98539.14
2018-03-16T03:05:26.174Z,98545.73
2018-03-16T03:07:53.577Z,98551.34
2018-03-16T03:10:20.988Z,98545.13
2018-03-16T03:12:48.434Z,98547.64
2018-03-16T03:15:15.836Z,98549.11
2018-03-16T03:17:43.359Z,98548.50
2018-03-16T03:20:10.824Z,98549.55
2018-03-16T03:22:38.228Z,98539.11
2018-03-16T03:25:06.188Z,98545.66
2018-03-16T03:27:33.592Z,98538.08
2018-03-16T03:30:00.990Z,98545.59
2018-03-16T03:32:28.424Z,98547.70
2018-03-16T03:34:59.600Z,98543.16
2018-03-16T03:37:27.102Z,98547.28
2018-03-16T03:39:54.536Z,98551.86
2018-03-16T03:42:22.017Z,98555.83
2018-03-16T03:44:49.491Z,98553.46
2018-03-16T03:47:16.883Z,98546.52
2018-03-16T03:49:44.360Z,98553.65
2018-03-16T03:52:11.816Z,98556.76
2018-03-16T03:54:39.222Z,98568.02
2018-03-16T03:57:06.608Z,98562.34
2018-03-16T03:59:34.185Z,98566.27
2018-03-16T04:02:01.630Z,98568.88
2018-03-16T04:04:29.052Z,98559.58
2018-03-16T04:06:56.452Z,98560.12
2018-03-16T04:09:23.859Z,98570.64
2018-03-16T04:11:51.278Z,98566.54
2018-03-16T04:14:18.672Z,98565.02
2018-03-16T04:16:46.188Z,98573.73
2018-03-16T04:19:13.579Z,98564.81
2018-03-16T04:21:40.977Z,98564.34
2018-03-16T04:24:08.363Z,98562.63
2018-03-16T04:26:36.460Z,98573.00
2018-03-16T04:29:04.026Z,98573.60
2018-03-16T04:31:31.510Z,98567.75
2018-03-16T04:33:58.994Z,98568.36
2018-03-16T04:36:26.622Z,98569.13
2018-03-16T04:38:54.202Z,98576.86
2018-03-16T04:41:21.607Z,98580.39
2018-03-16T04:43:49.330Z,98583.94
2018-03-16T04:46:16.762Z,98585.20
2018-03-16T04:48:44.276Z,98583.34
2018-03-16T04:51:11.708Z,98581.43
2018-03-16T04:53:39.125Z,98577.86
2018-03-16T04:56:06.715Z,98581.38
2018-03-16T04:58:34.162Z,98590.89
2018-03-16T05:01:01.671Z,98581.74
2018-03-16T05:03:29.092Z,98584.75
2018-03-16T05:05:56.684Z,98585.02
2018-03-16T05:08:24.061Z,98582.63
2018-03-16T05:10:51.444Z,98589.39
2018-03-16T05:13:18.875Z,98589.09
2018-03-16T05:15:46.650Z,98589.22
2018-03-16T05:18:14.156Z,98588.55
2018-03-16T05:20:41.547Z,98591.81
2018-03-16T05:23:08.990Z,98592.58
2018-03-16T05:25:37.654Z,98593.38
2018-03-16T05:28:05.080Z,98601.86
2018-03-16T05:30:32.519Z,98593.80
2018-03-16T05:32:59.890Z,98598.17
2018-03-16T05:35:27.295Z,98602.45
2018-03-16T05:37:54.705Z,98601.59
2018-03-16T05:40:22.122Z,98605.70
2018-03-16T05:42:49.574Z,98612.23
2018-03-16T05:45:16.984Z,98610.06
2018-03-16T05:47:44.398Z,98617.56
2018-03-16T05:50:11.816Z,98617.61
2018-03-16T05:52:39.314Z,98623.21
2018-03-16T05:55:10.598Z,98627.46
2018-03-16T05:57:38.030Z,98628.73
2018-03-16T06:00:05.419Z,98628.05
2018-03-16T06:02:32.845Z,98637.78
2018-03-16T06:05:00.301Z,98632.66
2018-03-16T06:07:27.718Z,98639.95
2018-03-16T06:09:55.150Z,98635.70
2018-03-16T06:12:22.550Z,98643.98
2018-03-16T06:14:49.942Z,98642.02
2018-03-16T06:17:17.349Z,98639.05
2018-03-16T06:19:45.067Z,98640.81
2018-03-16T06:22:12.911Z,98640.68
2018-03-16T06:24:40.336Z,98641.86
2018-03-16T06:27:07.720Z,98643.69
2018-03-16T06:29:35.123Z,98649.95
2018-03-16T06:32:02.512Z,98647.10
2018-03-16T06:34:29.919Z,98652.03
2018-03-16T06:36:57.354Z,98653.05
2018-03-16T06:39:24.774Z,98670.98
2018-03-16T06:41:52.160Z,98658.07
2018-03-16T06:44:19.565Z,98660.29
2018-03-16T06:46:46.998Z,98658.81
2018-03-16T06:49:14.396Z,98665.56
2018-03-16T06:51:42.694Z,98668.40
2018-03-16T06:54:10.294Z,98672.00
2018-03-16T06:56:37.671Z,98674.08
2018-03-16T06:59:05.070Z,98678.79
2018-03-16T07:01:32.459Z,98686.49
2018-03-16T07:03:59.871Z,98689.23
2018-03-16T07:06:27.261Z,98690.03
2018-03-16T07:08:54.667Z,98687.91
2018-03-16T07:11:22.072Z,98692.44
2018-03-16T07:13:49.479Z,98697.70
2018-03-16T07:16:16.869Z,98699.16
2018-03-16T07:18:44.281Z,98696.48
2018-03-16T07:21:11.678Z,98704.88
2018-03-16T07:23:39.152Z,98702.03
2018-03-16T07:26:07.637Z,98710.55
2018-03-16T07:28:35.030Z,98711.19
2018-03-16T07:31:03.482Z,98705.05
2018-03-16T07:33:30.876Z,98713.37
2018-03-16T07:35:58.327Z,98718.64
2018-03-16T07:38:25.809Z,98718.60
2018-03-16T07:40:53.205Z,98712.98
2018-03-16T07:43:20.594Z,98717.41
2018-03-16T07:45:53.594Z,98720.69
2018-03-16T07:48:21.021Z,98719.94
2018-03-16T07:50:48.417Z,98724.12
2018-03-16T07:53:15.814Z,98725.88
2018-03-16T07:55:43.265Z,98726.05
2018-03-16T07:58:10.679Z,98729.80
2018-03-16T08:00:38.058Z,98735.08
2018-03-16T08:03:05.667Z,98735.87
2018-03-16T08:05:33.063Z,98736.39
2018-03-16T08:08:00.483Z,98741.24
2018-03-16T08:10:27.958Z,98741.20
2018-03-16T08:12:55.405Z,98745.14
2018-03-16T08:15:22.817Z,98744.15
2018-03-16T08:17:50.221Z,98752.73
2018-03-16T08:20:17.599Z,98743.87
2018-03-16T08:22:45.005Z,98750.50
2018-03-16T08:25:12.416Z,98754.37
2018-03-16T08:27:40.490Z,98759.13
2018-03-16T08:30:07.948Z,98755.23
2018-03-16T08:32:35.361Z,98751.02
2018-03-16T08:35:02.752Z,98756.38
2018-03-16T08:37:30.176Z,98760.30
2018-03-16T08:39:57.587Z,98758.00
2018-03-16T08:42:25.025Z,98758.47
2018-03-16T08:44:52.458Z,98762.59
2018-03-16T08:47:19.844Z,98755.17
2018-03-16T08:49:47.282Z,98760.50
2018-03-16T08:52:14.646Z,98759.50
2018-03-16T08:54:42.050Z,98764.27
2018-03-16T08:57:09.455Z,98765.81
2018-03-16T08:59:37.103Z,98761.42
2018-03-16T09:02:04.491Z,98764.44
2018-03-16T09:04:31.917Z,98762.27
2018-03-16T09:06:59.304Z,98772.41
2018-03-16T09:09:26.907Z,98768.81
2018-03-16T09:11:54.306Z,98772.82
2018-03-16T09:14:21.750Z,98767.68
2018-03-16T09:16:49.225Z,98768.48
2018-03-16T09:19:16.622Z,98775.80
2018-03-16T09:21:44.025Z,98775.27
2018-03-16T09:24:11.465Z,98773.19
2018-03-16T09:26:38.868Z,98775.84
2018-03-16T09:29:06.288Z,98765.45
2018-03-16T09:31:33.682Z,98773.41
2018-03-16T09:34:01.551Z,98777.29
2018-03-16T09:36:28.953Z,98774.21
2018-03-16T09:38:56.361Z,98776.63
2018-03-16T09:41:23.767Z,98776.80
2018-03-16T09:43:51.225Z,98779.28
2018-03-16T09:46:18.604Z,98779.61
2018-03-16T09:48:46.039Z,98778.33
2018-03-16T09:51:13.441Z,98781.13
2018-03-16T09:53:40.977Z,98784.39
2018-03-16T09:56:08.369Z,98779.24
2018-03-16T09:58:35.754Z,98772.16
2018-03-16T10:01:03.288Z,98781.53
2018-03-16T10:03:30.737Z,98779.41
2018-03-16T10:05:58.156Z,98788.54
2018-03-16T10:08:25.560Z,98795.88
2018-03-16T10:10:52.961Z,98787.67
2018-03-16T10:13:20.374Z,98782.15
2018-03-16T10:15:48.256Z,98774.97
2018-03-16T10:18:15.668Z,98775.08
2018-03-16T10:20:43.141Z,98785.95
2018-03-16T10:23:10.545Z,98786.16
2018-03-16T10:25:38.489Z,98787.24
2018-03-16T10:28:05.863Z,98791.45
2018-03-16T10:30:33.262Z,98788.87
2018-03-16T10:33:00.662Z,98799.44
2018-03-16T10:35:28.069Z,98792.72
2018-03-16T10:37:55.451Z,98801.78
2018-03-16T10:40:22.837Z,98801.83
2018-03-16T10:42:50.289Z,98790.45
2018-03-16T10:45:17.654Z,98790.80
2018-03-16T10:47:45.060Z,98797.16
2018-03-16T10:50:12.686Z,98787.83
2018-03-16T10:52:40.220Z,98797.82
2018-03-16T10:55:08.592Z,98815.30
2018-03-16T10:57:36.023Z,98801.09
2018-03-16T11:00:03.480Z,98808.19
2018-03-16T11:02:36.545Z,98809.64
2018-03-16T11:05:09.789Z,98806.66
2018-03-16T11:07:47.093Z,98800.25
2018-03-16T11:10:14.485Z,98805.42
2018-03-16T11:12:41.900Z,98800.89
2018-03-16T11:15:09.651Z,98805.66
2018-03-16T11:17:37.061Z,98798.67
2018-03-16T11:20:04.440Z,98806.20
2018-03-16T11:22:31.835Z,98804.08
2018-03-16T11:24:59.233Z,98798.09
2018-03-16T11:27:26.696Z,98806.17
2018-03-16T11:29:54.070Z,98821.58
2018-03-16T11:32:21.578Z,98817.40
2018-03-16T11:34:49.031Z,98806.39
2018-03-16T11:37:16.581Z,98806.77
2018-03-16T11:39:43.975Z,98802.59
2018-03-16T11:42:11.377Z,98811.59
2018-03-16T11:44:38.860Z,98822.73
2018-03-16T11:47:06.309Z,98816.80
2018-03-16T11:49:34.109Z,98805.27
2018-03-16T11:52:01.581Z,98800.28
2018-03-16T11:54:28.954Z,98802.55
2018-03-16T11:56:56.374Z,98805.35
2018-03-16T11:59:23.765Z,98809.25
2018-03-16T12:01:51.349Z,98795.27
2018-03-16T12:04:18.770Z,98797.61
2018-03-16T12:06:46.169Z,98798.82
2018-03-16T12:09:13.577Z,98798.69
2018-03-16T12:11:40.977Z,98797.78
2018-03-16T12:14:09.146Z,98803.52
2018-03-16T12:16:36.612Z,98793.95
2018-03-16T12:19:05.034Z,98792.98
2018-03-16T12:21:32.527Z,98789.06
2018-03-16T12:24:00.059Z,98797.11
2018-03-16T12:26:28.061Z,98798.20
2018-03-16T12:28:57.206Z,98792.91
2018-03-16T12:31:25.088Z,98798.66
2018-03-16T12:33:52.819Z,98795.55
2018-03-16T12:36:20.217Z,98784.82
2018-03-16T12:38:47.653Z,98790.52
2018-03-16T12:41:15.041Z,98793.62
2018-03-16T12:43:42.445Z,98782.92
2018-03-16T12:46:09.954Z,98785.67
2018-03-16T12:48:37.361Z,98791.69
2018-03-16T12:51:04.752Z,98794.23
2018-03-16T12:53:32.250Z,98785.80
2018-03-16T12:55:59.635Z,98784.68
2018-03-16T12:58:27.093Z,98793.78
2018-03-16T13:00:54.710Z,98787.56
2018-03-16T13:03:22.129Z,98786.77
2018-03-16T13:05:49.685Z,98783.95
2018-03-16T13:08:17.085Z,98779.75
2018-03-16T13:10:44.478Z,98779.09
2018-03-16T13:13:11.856Z,98784.89
2018-03-16T13:15:39.289Z,98786.33
2018-03-16T13:18:06.661Z,98794.89
2018-03-16T13:20:34.095Z,98783.40
2018-03-16T13:23:01.859Z,98794.48
2018-03-16T13:25:29.270Z,98785.16
2018-03-16T13:27:56.685Z,98784.78
2018-03-16T13:30:24.110Z,98784.06
2018-03-16T13:32:51.614Z,98781.70
2018-03-16T13:35:19.005Z,98790.30
2018-03-16T13:37:46.457Z,98796.74
2018-03-16T13:40:13.913Z,98800.63
2018-03-16T13:42:41.308Z,98796.33
2018-03-16T13:45:09.461Z,98795.06
2018-03-16T13:47:36.871Z,98790.37
2018-03-16T13:50:04.278Z,98784.28
2018-03-16T13:52:31.669Z,98785.05
2018-03-16T13:55:05.766Z,98777.66
2018-03-16T13:57:33.170Z,98778.37
2018-03-16T14:00:00.589Z,98775.47
2018-03-16T14:02:28.027Z,98768.84
2018-03-16T14:04:55.370Z,98772.73
2018-03-16T14:07:22.761Z,98769.42
2018-03-16T14:09:51.611Z,98775.59
2018-03-16T14:12:19.003Z,98773.92
2018-03-16T14:14:50.125Z,98764.78
2018-03-16T14:17:19.085Z,98761.41
2018-03-16T14:19:46.559Z,98756.28
2018-03-16T14:22:14.032Z,98756.94
2018-03-16T14:24:43.685Z,98756.89
2018-03-16T14:27:12.219Z,98763.06
2018-03-16T14:29:39.810Z,98770.09
2018-03-16T14:32:07.919Z,98765.13
2018-03-16T14:34:37.101Z,98777.02
2018-03-16T14:37:04.990Z,98774.89
2018-03-16T14:39:38.300Z,98775.77
2018-03-16T14:42:06.578Z,98775.99
2018-03-16T14:44:33.956Z,98778.23
2018-03-16T14:47:01.495Z,98788.25
2018-03-16T14:49:28.859Z,98790.37
2018-03-16T14:51:56.276Z,98791.72
2018-03-16T14:54:23.678Z,98796.22
2018-03-16T14:56:51.061Z,98809.98
2018-03-16T14:59:18.450Z,98801.27
2018-03-16T15:01:45.891Z,98804.17
2018-03-16T15:04:13.258Z,98804.84
2018-03-16T15:06:40.621Z,98807.34
2018-03-16T15:09:08.009Z,98804.87
2018-03-16T15:11:35.399Z,98814.21
2018-03-16T15:14:02.784Z,98810.27
2018-03-16T15:16:30.179Z,98809.73
2018-03-16T15:18:57.589Z,98812.09
2018-03-16T15:21:25.005Z,98812.70
2018-03-16T15:23:52.384Z,98815.55
2018-03-16T15:26:19.789Z,98808.61
2018-03-16T15:28:47.197Z,98806.88
2018-03-16T15:31:14.585Z,98811.83
2018-03-16T15:33:42.017Z,98799.61
2018-03-16T15:36:10.181Z,98802.09
2018-03-16T15:38:37.657Z,98801.49
2018-03-16T15:41:05.039Z,98801.02
2018-03-16T15:43:33.936Z,98796.70
2018-03-16T15:46:01.336Z,98797.13
2018-03-16T15:48:28.735Z,98790.25
2018-03-16T15:50:56.097Z,98796.36
2018-03-16T15:53:23.501Z,98794.62
2018-03-16T15:55:50.958Z,98791.48
2018-03-16T15:58:18.357Z,98792.88
2018-03-16T16:00:45.745Z,98791.03
2018-03-16T16:03:13.142Z,98797.30
2018-03-16T16:05:40.570Z,98789.27
2018-03-16T16:08:08.108Z,98797.13
2018-03-16T16:10:35.497Z,98793.18
2018-03-16T16:13:02.870Z,98799.45
2018-03-16T16:15:30.252Z,98796.82
2018-03-16T16:17:58.024Z,98804.59
2018-03-16T16:20:25.442Z,98804.03
2018-03-16T16:22:53.037Z,98802.55
2018-03-16T16:25:20.550Z,98800.09
2018-03-16T16:27:48.004Z,98801.41
2018-03-16T16:30:15.486Z,98802.23
2018-03-16T16:32:43.458Z,98790.91
2018-03-16T16:35:10.853Z,98780.53
2018-03-16T16:37:38.235Z,98783.02
2018-03-16T16:40:05.659Z,98781.00
2018-03-16T16:42:33.062Z,98785.46
2018-03-16T16:45:00.501Z,98786.24
2018-03-16T16:47:27.940Z,98784.27
2018-03-16T16:49:55.333Z,98789.93
2018-03-16T16:52:22.731Z,98803.88
2018-03-16T16:54:50.228Z,98800.02
2018-03-16T16:57:17.617Z,98803.27
2018-03-16T16:59:45.066Z,98812.02
2018-03-16T17:02:12.452Z,98815.55
2018-03-16T17:04:40.501Z,98820.34
2018-03-16T17:07:07.925Z,98820.93
2018-03-16T17:09:35.625Z,98828.70
2018-03-16T17:12:03.041Z,98827.74
2018-03-16T17:14:30.427Z,98835.85
2018-03-16T17:16:57.901Z,98836.35
2018-03-16T17:19:25.273Z,98845.38
2018-03-16T17:21:52.659Z,98843.33
2018-03-16T17:24:20.046Z,98844.56
2018-03-16T17:26:47.448Z,98847.74
2018-03-16T17:29:14.842Z,98849.20
2018-03-16T17:31:42.280Z,98847.12
2018-03-16T17:34:10.754Z,98851.56
2018-03-16T17:36:38.177Z,98851.56
2018-03-16T17:39:05.652Z,98855.84
2018-03-16T17:41:33.045Z,98869.72
2018-03-16T17:44:00.437Z,98871.80
2018-03-16T17:46:27.821Z,98876.57
2018-03-16T17:48:55.224Z,98876.83
2018-03-16T17:51:22.640Z,98879.17
2018-03-16T17:53:50.041Z,98875.55
2018-03-16T17:56:17.602Z,98887.41
2018-03-16T17:58:45.005Z,98890.16
2018-03-16T18:01:12.421Z,98893.69
2018-03-16T18:03:40.867Z,98900.17
2018-03-16T18:06:08.301Z,98903.91
2018-03-16T18:08:35.757Z,98906.72
2018-03-16T18:11:03.196Z,98908.42
2018-03-16T18:13:30.617Z,98905.67
2018-03-16T18:15:58.010Z,98904.97
2018-03-16T18:18:25.399Z,98906.57
2018-03-16T18:20:52.810Z,98908.23
2018-03-16T18:23:20.369Z,98910.68
2018-03-16T18:25:47.937Z,98905.72
2018-03-16T18:28:15.324Z,98905.44
2018-03-16T18:30:42.713Z,98912.52
2018-03-16T18:33:11.044Z,98908.98
2018-03-16T18:35:38.442Z,98918.21
2018-03-16T18:38:05.834Z,98921.23
2018-03-16T18:40:33.230Z,98929.34
2018-03-16T18:43:00.639Z,98929.88
2018-03-16T18:45:28.113Z,98929.38
2018-03-16T18:47:55.496Z,98934.85
2018-03-16T18:50:22.889Z,98940.44
2018-03-16T18:52:50.294Z,98935.89
2018-03-16T18:55:18.818Z,98934.52
2018-03-16T18:57:46.248Z,98934.78
2018-03-16T19:00:13.601Z,98939.22
2018-03-16T19:02:41.190Z,98945.02
2018-03-16T19:05:08.737Z,98949.95
2018-03-16T19:07:36.137Z,98945.70
2018-03-16T19:10:03.518Z,98942.93
2018-03-16T19:12:30.921Z,98942.90
2018-03-16T19:14:58.355Z,98953.97
2018-03-16T19:17:25.848Z,98946.28
2018-03-16T19:19:53.236Z,98952.09
2018-03-16T19:22:20.649Z,98947.72
2018-03-16T19:24:48.085Z,98939.00
2018-03-16T19:27:15.526Z,98942.48
2018-03-16T19:29:42.900Z,98937.46
2018-03-16T19:32:10.319Z,98944.39
2018-03-16T19:34:37.696Z,98944.86
2018-03-16T19:37:05.115Z,98955.78
2018-03-16T19:39:32.680Z,98955.56
2018-03-16T19:42:00.103Z,98956.37
2018-03-16T19:44:27.500Z,98963.73
2018-03-16T19:46:55.483Z,98962.78
2018-03-16T19:49:22.887Z,98966.17
2018-03-16T19:51:50.278Z,98967.33
2018-03-16T19:54:17.675Z,98967.89
2018-03-16T19:56:45.064Z,98963.52
2018-03-16T19:59:12.464Z,98971.81
2018-03-16T20:01:39.868Z,98973.57
2018-03-16T20:04:07.287Z,98974.12
2018-03-16T20:06:34.658Z,98981.69
2018-03-16T20:09:02.065Z,98980.36
2018-03-16T20:11:29.473Z,98979.19
2018-03-16T20:13:56.881Z,98976.00
2018-03-16T20:16:24.274Z,98970.66
2018-03-16T20:18:51.687Z,98964.63
2018-03-16T20:21:19.092Z,98959.48
2018-03-16T20:23:46.520Z,98976.09
2018-03-16T20:26:13.922Z,98981.14
2018-03-16T20:28:41.694Z,98988.22
2018-03-16T20:31:09.089Z,98991.73
2018-03-16T20:33:36.474Z,98987.47
2018-03-16T20:36:03.897Z,98989.56
2018-03-16T20:38:31.293Z,98989.73
2018-03-16T20:40:58.693Z,98999.20
2018-03-16T20:43:26.073Z,99006.73
2018-03-16T20:45:53.575Z,99012.36
2018-03-16T20:48:22.077Z,99012.42
2018-03-16T20:50:49.470Z,99020.53
2018-03-16T20:53:16.865Z,99017.09
2018-03-16T20:55:44.252Z,99020.40
2018-03-16T20:58:11.822Z,99016.73
2018-03-16T21:00:39.285Z,99021.06
2018-03-16T21:03:06.679Z,99017.73
2018-03-16T21:05:34.077Z,99014.66
2018-03-16T21:08:02.028Z,99004.63
2018-03-16T21:10:29.437Z,99010.05
2018-03-16T21:12:56.849Z,99012.46
2018-03-16T21:15:24.254Z,99017.17
2018-03-16T21:17:51.646Z,99020.81
2018-03-16T21:20:19.084Z,99017.37
2018-03-16T21:22:46.427Z,99019.02
2018-03-16T21:25:13.915Z,99023.35
2018-03-16T21:27:42.017Z,99025.46
2018-03-16T21:30:09.402Z,99025.71
2018-03-16T21:32:36.821Z,99023.23
2018-03-16T21:35:04.217Z,99023.98
2018-03-16T21:37:31.625Z,99031.00
2018-03-16T21:39:59.008Z,99028.98
2018-03-16T21:42:26.429Z,99041.63
2018-03-16T21:44:53.941Z,99037.43
2018-03-16T21:47:21.333Z,99038.30
2018-03-16T21:49:48.722Z,99039.34
2018-03-16T21:52:16.104Z,99034.83
2018-03-16T21:54:43.517Z,99033.34
2018-03-16T21:57:10.924Z,99035.63
2018-03-16T21:59:38.313Z,99026.34
2018-03-16T22:02:05.699Z,99023.59
2018-03-16T22:04:33.144Z,99017.27
2018-03-16T22:07:00.556Z,99023.09
2018-03-16T22:09:27.980Z,99022.38
2018-03-16T22:11:55.381Z,99024.78
2018-03-16T22:14:22.862Z,99023.11
2018-03-16T22:16:50.252Z,99018.05
2018-03-16T22:19:17.641Z,99012.39
2018-03-16T22:21:45.035Z,99008.75
2018-03-16T22:24:13.196Z,99013.92
2018-03-16T22:26:40.595Z,99007.60
2018-03-16T22:29:08.045Z,99008.12
2018-03-16T22:31:35.604Z,99012.67
2018-03-16T22:34:02.980Z,99015.41
2018-03-16T22:36:30.381Z,99020.70
2018-03-16T22:38:57.767Z,99018.03
2018-03-16T22:41:25.189Z,99021.38
2018-03-16T22:43:52.622Z,99010.70
2018-03-16T22:46:20.005Z,99010.36
2018-03-16T22:48:47.392Z,99001.96
2018-03-16T22:51:14.930Z,99008.87
2018-03-16T22:53:43.277Z,98992.56
2018-03-16T22:56:10.684Z,98980.58
2018-03-16T22:58:38.054Z,98985.22
2018-03-16T23:01:05.466Z,98981.48
2018-03-16T23:03:32.934Z,98980.65
2018-03-16T23:06:00.362Z,98986.19
2018-03-16T23:08:27.781Z,98991.95
2018-03-16T23:10:55.173Z,98998.71
2018-03-16T23:13:22.648Z,98993.44
2018-03-16T23:15:50.041Z,98997.60
2018-03-16T23:18:17.480Z,98989.87
2018-03-16T23:20:44.849Z,98991.88
2018-03-16T23:23:12.570Z,98985.55
2018-03-16T23:25:39.960Z,98986.08
2018-03-16T23:28:07.350Z,99000.39
2018-03-16T23:30:34.803Z,98999.52
2018-03-16T23:33:02.221Z,99002.73
2018-03-16T23:35:29.615Z,99017.00
2018-03-16T23:37:57.022Z,99017.92
2018-03-16T23:40:24.401Z,99018.40
2018-03-16T23:42:51.849Z,99015.12
2018-03-16T23:45:19.302Z,99010.98
2018-03-16T23:47:46.692Z,99015.20
2018-03-16T23:50:14.096Z,99014.76
2018-03-16T23:52:43.342Z,99014.73
2018-03-16T23:55:10.752Z,99016.50
2018-03-16T23:57:38.135Z,99016.48
